createdAt,value
2023-03-27T00:01:22.280Z,3.94
2023-03-27T00:03:50.998Z,3.90
2023-03-27T00:06:20.448Z,3.84
2023-03-27T00:08:51.232Z,3.82
2023-03-27T00:11:20.074Z,3.79
2023-03-27T00:13:51.403Z,3.78
2023-03-27T00:16:21.773Z,3.76
2023-03-27T00:18:49.009Z,3.71
2023-03-27T00:21:16.219Z,3.67
2023-03-27T00:23:43.452Z,3.62
2023-03-27T00:26:12.015Z,3.58
2023-03-27T00:28:39.373Z,3.58
2023-03-27T00:31:11.633Z,3.53
2023-03-27T00:33:39.114Z,3.45
2023-03-27T00:36:06.900Z,3.43
2023-03-27T00:38:34.039Z,3.41
2023-03-27T00:41:01.515Z,3.36
2023-03-27T00:43:36.880Z,3.30
2023-03-27T00:46:32.010Z,3.22
2023-03-27T00:49:03.833Z,3.18
2023-03-27T00:51:31.272Z,3.16
2023-03-27T00:53:59.055Z,3.11
2023-03-27T00:56:26.692Z,3.14
2023-03-27T00:59:00.843Z,3.21
2023-03-27T01:01:30.311Z,3.23
2023-03-27T01:04:01.773Z,3.18
2023-03-27T01:06:30.007Z,3.19
2023-03-27T01:08:58.227Z,3.19
2023-03-27T01:11:43.711Z,3.22
2023-03-27T01:14:38.005Z,3.24
2023-03-27T01:17:11.948Z,3.30
2023-03-27T01:19:41.937Z,3.37
2023-03-27T01:22:27.950Z,3.32
2023-03-27T01:25:13.339Z,3.34
2023-03-27T01:27:58.666Z,3.33
2023-03-27T01:30:40.050Z,3.24
2023-03-27T01:33:29.048Z,3.26
2023-03-27T01:36:27.442Z,3.33
2023-03-27T01:39:46.027Z,3.40
2023-03-27T01:42:42.520Z,3.44
2023-03-27T01:45:22.401Z,3.61
2023-03-27T01:47:59.829Z,3.71
2023-03-27T01:50:38.368Z,3.72
2023-03-27T01:53:13.621Z,3.76
2023-03-27T01:55:45.745Z,3.80
2023-03-27T01:58:19.233Z,3.81
2023-03-27T02:00:53.593Z,3.77
2023-03-27T02:03:26.969Z,3.76
2023-03-27T02:06:00.510Z,3.79
2023-03-27T02:08:39.164Z,3.78
2023-03-27T02:11:15.568Z,3.76
2023-03-27T02:13:47.595Z,3.76
2023-03-27T02:16:21.586Z,3.76
2023-03-27T02:19:01.643Z,3.77
2023-03-27T02:21:31.531Z,3.79
2023-03-27T02:24:06.132Z,3.74
2023-03-27T02:26:34.071Z,3.76
2023-03-27T02:29:25.021Z,3.76
2023-03-27T02:32:20.146Z,3.78
2023-03-27T02:34:53.907Z,3.82
2023-03-27T02:37:50.769Z,3.83
2023-03-27T02:40:39.916Z,3.79
2023-03-27T02:43:57.084Z,3.74
2023-03-27T02:47:07.691Z,3.73
2023-03-27T02:49:44.628Z,3.70
2023-03-27T02:52:16.883Z,3.62
2023-03-27T02:54:52.390Z,3.52
2023-03-27T02:57:25.077Z,3.41
2023-03-27T03:00:25.776Z,3.23
2023-03-27T03:03:28.981Z,3.12
2023-03-27T03:06:07.481Z,2.94
2023-03-27T03:08:38.877Z,2.81
2023-03-27T03:11:12.172Z,2.68
2023-03-27T03:13:41.204Z,2.57
2023-03-27T03:16:08.928Z,2.54
2023-03-27T03:18:35.862Z,2.56
2023-03-27T03:21:02.926Z,2.54
2023-03-27T03:23:29.770Z,2.45
2023-03-27T03:25:57.221Z,2.43
2023-03-27T03:28:40.081Z,2.45
2023-03-27T03:31:28.025Z,2.48
2023-03-27T03:33:56.329Z,2.60
2023-03-27T03:36:24.010Z,2.56
2023-03-27T03:38:51.129Z,2.58
2023-03-27T03:41:18.232Z,2.66
2023-03-27T03:43:46.797Z,2.69
2023-03-27T03:46:13.862Z,2.64
2023-03-27T03:48:41.802Z,2.59
2023-03-27T03:51:08.744Z,2.56
2023-03-27T03:53:35.776Z,2.61
2023-03-27T03:56:02.686Z,2.65
2023-03-27T03:58:34.541Z,2.66
2023-03-27T04:01:04.992Z,2.68
2023-03-27T04:03:39.156Z,2.88
2023-03-27T04:06:07.796Z,3.07
2023-03-27T04:08:35.320Z,3.26
2023-03-27T04:11:19.741Z,3.25
2023-03-27T04:13:57.347Z,3.26
2023-03-27T04:16:31.028Z,3.30
2023-03-27T04:19:03.580Z,3.36
2023-03-27T04:21:33.272Z,3.40
2023-03-27T04:24:02.927Z,3.41
2023-03-27T04:26:43.884Z,3.43
2023-03-27T04:29:13.826Z,3.38
2023-03-27T04:32:01.342Z,3.34
2023-03-27T04:34:50.359Z,3.29
2023-03-27T04:37:23.405Z,3.26
2023-03-27T04:40:18.234Z,3.19
2023-03-27T04:42:45.845Z,3.18
2023-03-27T04:45:18.068Z,3.14
2023-03-27T04:47:49.378Z,3.08
2023-03-27T04:50:18.042Z,3.08
2023-03-27T04:52:48.408Z,3.08
2023-03-27T04:55:17.831Z,3.07
2023-03-27T04:57:48.178Z,3.01
2023-03-27T05:00:19.736Z,3.01
2023-03-27T05:02:48.635Z,3.00
2023-03-27T05:05:21.152Z,2.98
2023-03-27T05:07:50.030Z,2.98
2023-03-27T05:10:23.462Z,3.05
2023-03-27T05:12:53.409Z,3.08
2023-03-27T05:15:21.868Z,3.09
2023-03-27T05:17:54.437Z,3.09
2023-03-27T05:20:24.815Z,3.06
2023-03-27T05:22:56.418Z,3.12
2023-03-27T05:25:28.882Z,3.08
2023-03-27T05:27:57.199Z,3.05
2023-03-27T05:30:28.932Z,3.17
2023-03-27T05:33:14.172Z,3.31
2023-03-27T05:35:42.880Z,3.39
2023-03-27T05:38:11.039Z,3.36
2023-03-27T05:41:02.518Z,3.32
2023-03-27T05:43:31.172Z,3.38
2023-03-27T05:45:58.362Z,3.38
2023-03-27T05:48:25.571Z,3.37
2023-03-27T05:50:58.166Z,3.40
2023-03-27T05:53:28.106Z,3.44
2023-03-27T05:56:19.632Z,3.51
2023-03-27T05:58:52.633Z,3.49
2023-03-27T06:01:21.029Z,3.42
2023-03-27T06:03:49.405Z,3.34
2023-03-27T06:06:21.723Z,3.37
2023-03-27T06:08:54.012Z,3.38
2023-03-27T06:11:21.238Z,3.40
2023-03-27T06:13:49.622Z,3.40
2023-03-27T06:16:21.401Z,3.44
2023-03-27T06:19:07.487Z,3.44
2023-03-27T06:21:41.592Z,3.44
2023-03-27T06:24:08.808Z,3.47
2023-03-27T06:26:35.720Z,3.51
2023-03-27T06:29:08.007Z,3.55
2023-03-27T06:31:39.287Z,3.61
2023-03-27T06:34:09.988Z,3.64
2023-03-27T06:36:51.867Z,3.71
2023-03-27T06:39:19.296Z,3.76
2023-03-27T06:41:49.602Z,3.80
2023-03-27T06:44:26.997Z,3.89
2023-03-27T06:47:00.090Z,3.97
2023-03-27T06:49:47.996Z,4.09
2023-03-27T06:52:21.613Z,4.24
2023-03-27T06:54:48.902Z,4.47
2023-03-27T06:57:16.099Z,4.82
2023-03-27T06:59:48.965Z,5.37
2023-03-27T07:02:23.653Z,5.61
2023-03-27T07:05:09.641Z,5.53
2023-03-27T07:07:41.435Z,4.84
2023-03-27T07:10:11.745Z,4.30
2023-03-27T07:12:41.491Z,3.99
2023-03-27T07:15:10.550Z,3.86
2023-03-27T07:17:47.995Z,3.79
2023-03-27T07:20:17.650Z,3.84
2023-03-27T07:22:44.597Z,4.06
2023-03-27T07:25:22.634Z,4.34
2023-03-27T07:27:51.144Z,4.52
2023-03-27T07:30:18.429Z,4.55
2023-03-27T07:32:47.098Z,4.08
2023-03-27T07:35:15.155Z,3.63
2023-03-27T07:38:03.418Z,3.36
2023-03-27T07:40:53.223Z,3.09
2023-03-27T07:43:28.997Z,2.84
2023-03-27T07:45:57.857Z,2.81
2023-03-27T07:48:27.870Z,3.00
2023-03-27T07:51:10.868Z,3.28
2023-03-27T07:53:41.534Z,3.64
2023-03-27T07:56:17.576Z,4.04
2023-03-27T07:58:47.886Z,4.47
2023-03-27T08:01:20.101Z,5.17
2023-03-27T08:03:48.758Z,5.83
2023-03-27T08:06:18.281Z,6.02
2023-03-27T08:08:46.373Z,5.63
2023-03-27T08:11:27.351Z,3.95
2023-03-27T08:13:57.330Z,2.86
2023-03-27T08:16:27.832Z,2.52
2023-03-27T08:18:57.829Z,2.49
2023-03-27T08:21:26.777Z,2.43
2023-03-27T08:23:57.365Z,2.40
2023-03-27T08:26:33.934Z,2.40
2023-03-27T08:29:08.990Z,2.50
2023-03-27T08:31:37.484Z,2.63
2023-03-27T08:34:06.073Z,2.80
2023-03-27T08:36:41.449Z,2.98
2023-03-27T08:39:09.170Z,3.25
2023-03-27T08:41:52.643Z,3.50
2023-03-27T08:44:29.346Z,3.70
2023-03-27T08:47:15.878Z,3.90
2023-03-27T08:49:54.580Z,4.06
2023-03-27T08:52:32.473Z,4.24
2023-03-27T08:55:07.851Z,4.58
2023-03-27T08:57:44.052Z,4.85
2023-03-27T09:00:23.748Z,5.05
2023-03-27T09:03:05.106Z,5.15
2023-03-27T09:05:44.464Z,5.46
2023-03-27T09:08:34.759Z,5.70
2023-03-27T09:11:16.240Z,5.85
2023-03-27T09:13:53.906Z,5.88
2023-03-27T09:16:41.028Z,5.88
2023-03-27T09:19:34.359Z,5.78
2023-03-27T09:22:10.988Z,5.77
2023-03-27T09:24:52.280Z,5.83
2023-03-27T09:27:37.748Z,6.05
2023-03-27T09:30:33.918Z,6.12
2023-03-27T09:33:12.380Z,5.77
2023-03-27T09:35:42.754Z,5.60
2023-03-27T09:38:13.181Z,5.44
2023-03-27T09:40:48.553Z,5.45
2023-03-27T09:43:22.295Z,5.56
2023-03-27T09:45:53.899Z,5.76
2023-03-27T09:48:50.635Z,5.92
2023-03-27T09:51:40.451Z,5.93
2023-03-27T09:54:16.945Z,6.15
2023-03-27T09:56:51.986Z,6.75
2023-03-27T09:59:29.054Z,7.05
2023-03-27T10:02:30.709Z,6.87
2023-03-27T10:05:17.953Z,6.63
2023-03-27T10:07:49.185Z,6.24
2023-03-27T10:10:45.227Z,6.06
2023-03-27T10:13:16.885Z,6.07
2023-03-27T10:15:51.187Z,6.29
2023-03-27T10:18:30.525Z,6.54
2023-03-27T10:21:10.128Z,6.80
2023-03-27T10:23:48.954Z,6.96
2023-03-27T10:26:37.852Z,7.75
2023-03-27T10:29:22.547Z,7.95
2023-03-27T10:31:53.196Z,7.16
2023-03-27T10:35:00.750Z,6.12
2023-03-27T10:37:55.463Z,5.53
2023-03-27T10:40:48.627Z,5.32
2023-03-27T10:43:33.901Z,5.52
2023-03-27T10:46:05.956Z,5.82
2023-03-27T10:48:54.753Z,6.25
2023-03-27T10:51:47.196Z,6.48
2023-03-27T10:54:30.011Z,6.42
2023-03-27T10:57:03.359Z,6.61
2023-03-27T10:59:48.635Z,6.78
2023-03-27T11:02:40.796Z,6.93
2023-03-27T11:05:13.805Z,7.17
2023-03-27T11:08:00.512Z,7.37
2023-03-27T11:10:41.822Z,7.38
2023-03-27T11:13:28.333Z,7.50
2023-03-27T11:16:22.111Z,7.16
2023-03-27T11:19:13.672Z,6.39
2023-03-27T11:22:15.287Z,6.37
2023-03-27T11:24:53.299Z,6.61
2023-03-27T11:27:38.449Z,6.81
2023-03-27T11:30:18.062Z,6.76
2023-03-27T11:33:24.298Z,6.69
2023-03-27T11:36:30.007Z,6.70
2023-03-27T11:39:40.924Z,6.98
2023-03-27T11:42:21.462Z,7.13
2023-03-27T11:44:49.582Z,7.03
2023-03-27T11:47:44.159Z,7.09
2023-03-27T11:50:52.138Z,7.06
2023-03-27T11:53:42.224Z,6.97
2023-03-27T11:56:29.943Z,7.10
2023-03-27T11:59:52.392Z,7.27
2023-03-27T12:02:36.002Z,7.68
2023-03-27T12:05:43.250Z,7.93
2023-03-27T12:08:24.882Z,7.65
2023-03-27T12:10:58.601Z,7.70
2023-03-27T12:13:47.768Z,8.20
2023-03-27T12:16:54.144Z,7.93
2023-03-27T12:19:53.585Z,7.67
2023-03-27T12:22:48.215Z,7.12
2023-03-27T12:26:00.589Z,6.51
2023-03-27T12:28:53.494Z,6.03
2023-03-27T12:32:07.784Z,5.56
2023-03-27T12:34:50.294Z,5.23
2023-03-27T12:37:23.358Z,5.10
2023-03-27T12:39:56.460Z,5.40
2023-03-27T12:43:26.743Z,5.41
2023-03-27T12:46:16.510Z,5.53
2023-03-27T12:49:01.640Z,5.59
2023-03-27T12:51:44.138Z,6.04
2023-03-27T12:54:19.738Z,6.67
2023-03-27T12:57:16.106Z,7.23
2023-03-27T12:59:47.059Z,7.50
2023-03-27T13:02:40.839Z,7.08
2023-03-27T13:05:32.970Z,6.69
2023-03-27T13:08:17.123Z,6.71
2023-03-27T13:11:22.324Z,7.07
2023-03-27T13:14:14.966Z,7.46
2023-03-27T13:17:11.725Z,7.41
2023-03-27T13:20:18.533Z,7.09
2023-03-27T13:23:29.045Z,7.11
2023-03-27T13:26:06.255Z,7.29
2023-03-27T13:28:39.117Z,7.38
2023-03-27T13:31:14.864Z,7.29
2023-03-27T13:34:41.693Z,7.24
2023-03-27T13:37:16.620Z,7.14
2023-03-27T13:39:48.455Z,7.48
2023-03-27T13:42:21.336Z,7.78
2023-03-27T13:45:08.199Z,7.91
2023-03-27T13:48:01.189Z,8.10
2023-03-27T13:51:09.320Z,7.40
2023-03-27T13:53:40.544Z,7.17
2023-03-27T13:56:33.443Z,7.01
2023-03-27T13:59:45.872Z,6.94
2023-03-27T14:02:25.850Z,7.20
2023-03-27T14:05:06.588Z,7.27
2023-03-27T14:08:06.808Z,7.67
2023-03-27T14:11:12.457Z,7.92
2023-03-27T14:13:48.520Z,8.00
2023-03-27T14:16:50.570Z,7.77
2023-03-27T14:19:38.394Z,7.94
2023-03-27T14:22:23.686Z,7.45
2023-03-27T14:25:05.284Z,7.16
2023-03-27T14:27:44.164Z,7.25
2023-03-27T14:30:21.904Z,7.11
2023-03-27T14:33:09.159Z,7.15
2023-03-27T14:35:39.188Z,7.31
2023-03-27T14:38:23.373Z,7.51
2023-03-27T14:41:20.673Z,7.31
2023-03-27T14:43:54.002Z,7.25
2023-03-27T14:46:23.486Z,7.43
2023-03-27T14:48:58.177Z,7.64
2023-03-27T14:51:37.325Z,7.72
2023-03-27T14:54:14.255Z,7.60
2023-03-27T14:56:51.644Z,7.61
2023-03-27T14:59:39.386Z,7.88
2023-03-27T15:02:20.727Z,7.70
2023-03-27T15:04:50.390Z,7.70
2023-03-27T15:07:28.922Z,7.72
2023-03-27T15:10:22.559Z,7.44
2023-03-27T15:13:01.518Z,7.40
2023-03-27T15:15:42.899Z,7.22
2023-03-27T15:18:24.868Z,6.77
2023-03-27T15:20:55.159Z,6.45
2023-03-27T15:23:36.802Z,6.49
2023-03-27T15:26:06.465Z,6.78
2023-03-27T15:28:38.570Z,6.53
2023-03-27T15:31:07.151Z,6.32
2023-03-27T15:34:03.452Z,6.06
2023-03-27T15:36:35.502Z,5.91
2023-03-27T15:39:07.165Z,6.00
2023-03-27T15:41:35.067Z,6.12
2023-03-27T15:44:03.964Z,6.08
2023-03-27T15:46:58.192Z,6.43
2023-03-27T15:49:27.851Z,6.79
2023-03-27T15:52:00.239Z,7.20
2023-03-27T15:54:30.398Z,7.61
2023-03-27T15:57:10.326Z,7.75
2023-03-27T15:59:52.854Z,7.90
2023-03-27T16:02:24.667Z,7.46
2023-03-27T16:04:54.458Z,6.60
2023-03-27T16:07:43.211Z,6.01
2023-03-27T16:10:12.558Z,5.75
2023-03-27T16:12:59.246Z,5.54
2023-03-27T16:15:30.248Z,5.57
2023-03-27T16:18:01.428Z,5.87
2023-03-27T16:20:34.880Z,6.13
2023-03-27T16:23:04.342Z,6.21
2023-03-27T16:25:31.766Z,6.36
2023-03-27T16:27:58.841Z,6.45
2023-03-27T16:30:35.476Z,6.57
2023-03-27T16:33:03.802Z,6.78
2023-03-27T16:35:32.525Z,6.60
2023-03-27T16:38:00.044Z,6.46
2023-03-27T16:40:27.474Z,6.41
2023-03-27T16:42:54.662Z,6.48
2023-03-27T16:45:21.666Z,6.44
2023-03-27T16:47:53.121Z,6.36
2023-03-27T16:50:24.658Z,6.42
2023-03-27T16:52:51.673Z,6.52
2023-03-27T16:55:19.141Z,6.56
2023-03-27T16:57:49.253Z,6.48
2023-03-27T17:00:20.544Z,6.22
2023-03-27T17:02:47.846Z,6.08
2023-03-27T17:05:15.899Z,5.89
2023-03-27T17:07:44.104Z,5.75
2023-03-27T17:10:11.442Z,5.70
2023-03-27T17:12:38.599Z,5.69
2023-03-27T17:15:06.404Z,5.68
2023-03-27T17:17:33.336Z,5.71
2023-03-27T17:20:00.802Z,5.53
2023-03-27T17:22:29.875Z,5.34
2023-03-27T17:25:00.676Z,5.20
2023-03-27T17:27:28.166Z,5.08
2023-03-27T17:29:58.517Z,4.98
2023-03-27T17:32:27.053Z,4.85
2023-03-27T17:34:54.323Z,4.77
2023-03-27T17:37:22.175Z,4.78
2023-03-27T17:39:49.375Z,4.77
2023-03-27T17:42:16.781Z,4.88
2023-03-27T17:44:45.340Z,4.96
2023-03-27T17:47:13.112Z,4.93
2023-03-27T17:49:40.926Z,4.92
2023-03-27T17:52:11.363Z,4.90
2023-03-27T17:54:39.112Z,4.81
2023-03-27T17:57:06.572Z,4.66
2023-03-27T17:59:33.950Z,4.47
2023-03-27T18:02:01.293Z,4.36
2023-03-27T18:04:29.668Z,4.30
2023-03-27T18:06:59.570Z,4.28
2023-03-27T18:09:27.042Z,4.33
2023-03-27T18:11:53.915Z,4.45
2023-03-27T18:14:20.920Z,4.54
2023-03-27T18:16:48.215Z,4.69
2023-03-27T18:19:15.368Z,4.71
2023-03-27T18:21:42.340Z,4.74
2023-03-27T18:24:09.365Z,4.72
2023-03-27T18:26:36.256Z,4.68
2023-03-27T18:29:04.200Z,4.75
2023-03-27T18:31:31.740Z,4.71
2023-03-27T18:34:00.068Z,4.66
2023-03-27T18:36:27.335Z,4.68
2023-03-27T18:38:54.612Z,4.74
2023-03-27T18:41:21.528Z,4.80
2023-03-27T18:43:48.553Z,4.89
2023-03-27T18:46:17.290Z,4.96
2023-03-27T18:48:45.581Z,4.97
2023-03-27T18:51:13.269Z,4.97
2023-03-27T18:53:40.848Z,4.99
2023-03-27T18:56:08.233Z,5.04
2023-03-27T18:58:35.945Z,5.04
2023-03-27T19:01:09.111Z,4.96
2023-03-27T19:03:37.317Z,4.89
2023-03-27T19:06:07.199Z,4.89
2023-03-27T19:08:37.889Z,4.93
2023-03-27T19:11:09.210Z,4.94
2023-03-27T19:13:55.727Z,4.92
2023-03-27T19:16:42.303Z,4.96
2023-03-27T19:19:42.734Z,5.02
2023-03-27T19:22:16.942Z,4.97
2023-03-27T19:24:49.082Z,4.86
2023-03-27T19:27:24.245Z,4.82
2023-03-27T19:29:52.911Z,4.84
2023-03-27T19:32:20.556Z,4.83
2023-03-27T19:34:50.423Z,4.84
2023-03-27T19:37:17.730Z,4.83
2023-03-27T19:39:44.710Z,4.78
2023-03-27T19:42:11.683Z,4.74
2023-03-27T19:44:38.994Z,4.71
2023-03-27T19:47:07.527Z,4.72
2023-03-27T19:49:34.666Z,4.65
2023-03-27T19:52:31.296Z,4.60
2023-03-27T19:55:00.394Z,4.55
2023-03-27T19:57:27.806Z,4.51
2023-03-27T19:59:54.969Z,4.54
2023-03-27T20:02:22.150Z,4.53
2023-03-27T20:04:49.546Z,4.50
2023-03-27T20:07:16.721Z,4.46
2023-03-27T20:09:43.602Z,4.47
2023-03-27T20:12:12.364Z,4.45
2023-03-27T20:14:39.691Z,4.43
2023-03-27T20:17:12.359Z,4.38
2023-03-27T20:19:50.052Z,4.39
2023-03-27T20:22:20.781Z,4.48
2023-03-27T20:24:49.084Z,4.52
2023-03-27T20:27:19.905Z,4.47
2023-03-27T20:29:47.876Z,4.39
2023-03-27T20:32:16.470Z,4.39
2023-03-27T20:34:46.484Z,4.35
2023-03-27T20:37:13.911Z,4.27
2023-03-27T20:39:47.344Z,4.25
2023-03-27T20:42:18.038Z,4.27
2023-03-27T20:44:46.543Z,4.32
2023-03-27T20:47:19.349Z,4.29
2023-03-27T20:49:48.081Z,4.31
2023-03-27T20:52:18.388Z,4.37
2023-03-27T20:54:45.585Z,4.35
2023-03-27T20:57:15.764Z,4.35
2023-03-27T20:59:42.664Z,4.33
2023-03-27T21:02:18.257Z,4.29
2023-03-27T21:04:46.798Z,4.29
2023-03-27T21:07:15.795Z,4.35
2023-03-27T21:09:45.045Z,4.38
2023-03-27T21:12:12.001Z,4.38
2023-03-27T21:14:38.799Z,4.36
2023-03-27T21:17:06.031Z,4.35
2023-03-27T21:19:36.075Z,4.28
2023-03-27T21:22:03.094Z,4.26
2023-03-27T21:24:30.210Z,4.19
2023-03-27T21:26:58.517Z,4.11
2023-03-27T21:29:28.113Z,4.02
2023-03-27T21:31:55.107Z,3.98
2023-03-27T21:34:22.630Z,3.93
2023-03-27T21:36:49.530Z,3.85
2023-03-27T21:39:16.739Z,3.76
2023-03-27T21:41:43.772Z,3.79
2023-03-27T21:44:11.052Z,3.76
2023-03-27T21:46:37.966Z,3.74
2023-03-27T21:49:05.110Z,3.74
2023-03-27T21:51:32.089Z,3.68
2023-03-27T21:53:58.875Z,3.64
2023-03-27T21:56:26.145Z,3.63
2023-03-27T21:58:53.302Z,3.60
2023-03-27T22:01:20.688Z,3.61
2023-03-27T22:03:48.134Z,3.58
2023-03-27T22:06:15.268Z,3.57
2023-03-27T22:08:43.521Z,3.50
2023-03-27T22:11:12.058Z,3.54
2023-03-27T22:13:39.549Z,3.53
2023-03-27T22:16:12.187Z,3.53
2023-03-27T22:18:40.560Z,3.54
2023-03-27T22:21:40.036Z,3.51
2023-03-27T22:24:07.526Z,3.52
2023-03-27T22:26:38.344Z,3.50
2023-03-27T22:29:07.958Z,3.50
2023-03-27T22:31:36.021Z,3.49
2023-03-27T22:34:04.930Z,3.48
2023-03-27T22:36:33.889Z,3.45
2023-03-27T22:39:01.030Z,3.41
2023-03-27T22:41:28.182Z,3.39
2023-03-27T22:43:56.062Z,3.41
2023-03-27T22:46:23.789Z,3.36
2023-03-27T22:48:55.555Z,3.33
2023-03-27T22:51:23.154Z,3.29
2023-03-27T22:53:50.525Z,3.26
2023-03-27T22:56:18.215Z,3.19
2023-03-27T22:58:45.602Z,3.18
2023-03-27T23:01:13.243Z,3.19
2023-03-27T23:03:40.874Z,3.19
2023-03-27T23:06:08.270Z,3.13
2023-03-27T23:08:35.322Z,3.09
2023-03-27T23:11:05.250Z,3.09
2023-03-27T23:13:34.114Z,3.06
2023-03-27T23:16:01.665Z,2.95
2023-03-27T23:18:29.169Z,2.92
2023-03-27T23:21:07.263Z,2.90
2023-03-27T23:23:35.981Z,2.93
2023-03-27T23:26:04.370Z,2.85
2023-03-27T23:28:34.733Z,2.65
2023-03-27T23:31:06.880Z,2.51
2023-03-27T23:33:36.693Z,2.44
2023-03-27T23:36:10.023Z,2.38
2023-03-27T23:38:37.601Z,2.36
2023-03-27T23:41:06.212Z,2.33
2023-03-27T23:43:34.093Z,2.28
2023-03-27T23:46:01.170Z,2.24
2023-03-27T23:48:29.092Z,2.27
2023-03-27T23:50:57.602Z,2.27
2023-03-27T23:53:26.816Z,2.27
2023-03-27T23:55:56.275Z,2.26
2023-03-27T23:58:24.507Z,2.29
